Time;durP1;ratioP1;P1;durP2;ratioP2;P2;SDS_P1;SDS_P2;PMS_P1;PMS_P2;Temp;Humidity;BMP_temperature;BMP_pressure;BME280_temperature;BME280_humidity;BME280_pressure;Samples;Min_cycle;Max_cycle;Signal;HPM_P1;HPM_P2
2023/07/29 00:00:40;;;;;;;5.03;3.22;;;;;;;17.70;92.96;100636.63;4857584;29;20033;-89
2023/07/29 00:03:05;;;;;;;;;;;;;;;17.68;92.80;100639.66;4861241;29;20033;-86
2023/07/29 00:05:31;;;;;;;4.82;3.47;;;;;;;17.65;92.58;100640.28;4865509;29;19919;-87
2023/07/29 00:07:57;;;;;;;;;;;;;;;17.64;93.22;100640.59;4873955;29;20679;-90
2023/07/29 00:10:23;;;;;;;4.35;3.22;;;;;;;17.59;92.77;100629.94;4861338;29;19960;-88
2023/07/29 00:12:48;;;;;;;;;;;;;;;17.57;92.81;100632.97;4832122;29;20046;-87
2023/07/29 00:15:14;;;;;;;8.43;3.72;;;;;;;17.51;92.33;100636.94;4843335;29;19920;-87
2023/07/29 00:17:39;;;;;;;3.63;3.13;;;;;;;17.48;92.51;100634.88;4860781;29;20072;-86
2023/07/29 00:20:07;;;;;;;6.40;4.45;;;;;;;17.46;92.71;100637.88;4860767;29;20029;-87
2023/07/29 00:22:37;;;;;;;5.15;4.20;;;;;;;17.45;92.43;100635.50;4872800;29;20385;-88
2023/07/29 00:25:03;;;;;;;4.25;3.33;;;;;;;17.41;92.23;100634.56;4857702;29;20106;-86
2023/07/29 00:27:28;;;;;;;;;;;;;;;17.38;92.12;100627.06;4857418;29;20037;-87
2023/07/29 00:29:54;;;;;;;8.13;4.10;;;;;;;17.34;92.61;100617.97;4879844;29;19972;-87
2023/07/29 00:32:20;;;;;;;6.80;4.50;;;;;;;17.31;92.49;100619.41;4842713;29;20054;-88
2023/07/29 00:34:46;;;;;;;;;;;;;;;17.28;92.73;100619.25;4858982;29;20033;-84
2023/07/29 00:37:12;;;;;;;7.82;4.25;;;;;;;17.26;93.36;100616.06;4841917;29;19944;-86
2023/07/29 00:39:37;;;;;;;5.28;3.80;;;;;;;17.25;93.00;100614.47;4859814;29;20041;-86
2023/07/29 00:42:04;;;;;;;5.38;3.88;;;;;;;17.26;92.66;100613.34;4841350;29;20137;-89
2023/07/29 00:44:31;;;;;;;6.40;3.80;;;;;;;17.26;93.13;100607.94;4850341;29;20033;-86
2023/07/29 00:47:03;;;;;;;3.97;3.03;;;;;;;17.25;93.18;100600.94;4857716;29;20093;-86
2023/07/29 00:49:28;;;;;;;4.57;3.88;;;;;;;17.25;93.19;100598.22;4849038;29;20109;-85
2023/07/29 00:51:55;;;;;;;4.55;3.80;;;;;;;17.23;93.34;100600.47;4827425;29;20049;-85
2023/07/29 00:54:20;;;;;;;;;;;;;;;17.22;93.64;100598.88;4858248;29;20058;-86
2023/07/29 00:56:46;;;;;;;5.18;4.28;;;;;;;17.17;94.04;100597.91;4865830;29;19923;-85
2023/07/29 00:59:12;;;;;;;;;;;;;;;17.18;94.09;100594.09;4865207;29;20045;-87
2023/07/29 01:01:38;;;;;;;3.75;3.08;;;;;;;17.17;93.32;100591.69;4842549;29;19916;-89
2023/07/29 01:04:04;;;;;;;5.07;4.57;;;;;;;17.18;93.73;100577.06;4857834;29;20056;-89
2023/07/29 01:06:35;;;;;;;;;;;;;;;17.18;94.74;100585.16;4841436;29;20038;-87
2023/07/29 01:09:08;;;;;;;6.55;4.63;;;;;;;17.12;94.57;100578.31;4852136;29;19976;-88
2023/07/29 01:11:44;;;;;;;5.15;4.15;;;;;;;17.13;95.14;100564.47;4858352;29;20042;-89
2023/07/29 01:14:38;;;;;;;7.55;4.90;;;;;;;17.16;95.54;100558.44;4844178;29;20049;-88
2023/07/29 01:17:08;;;;;;;7.25;5.53;;;;;;;17.17;95.86;100551.91;4854116;29;20049;-88
2023/07/29 01:19:59;;;;;;;7.47;5.45;;;;;;;17.21;96.20;100559.41;4858073;29;20053;-88
2023/07/29 01:22:26;;;;;;;7.85;5.75;;;;;;;17.23;96.30;100568.00;4872486;29;20087;-88
2023/07/29 01:24:51;;;;;;;7.57;4.80;;;;;;;17.26;95.80;100561.94;4875609;29;20065;-92
2023/07/29 01:27:16;;;;;;;;;;;;;;;17.30;96.57;100557.47;4841017;29;20152;-89
2023/07/29 01:29:42;;;;;;;8.73;4.90;;;;;;;17.29;96.12;100555.91;4859931;29;19988;-90
2023/07/29 01:32:13;;;;;;;;;;;;;;;17.34;96.41;100563.84;4847251;29;20056;-88
2023/07/29 01:34:48;;;;;;;8.52;7.13;;;;;;;17.35;97.02;100562.75;4869961;29;19979;-88
2023/07/29 01:37:22;;;;;;;7.75;6.32;;;;;;;17.37;97.19;100561.28;4855274;29;20048;-84
2023/07/29 01:39:50;;;;;;;8.43;5.95;;;;;;;17.41;97.08;100570.38;4864233;29;20036;-87
2023/07/29 01:42:16;;;;;;;8.38;6.72;;;;;;;17.45;97.32;100570.53;4846122;29;20388;-87
2023/07/29 01:44:42;;;;;;;;;;;;;;;17.48;97.36;100569.91;4862505;29;20491;-86
2023/07/29 01:47:08;;;;;;;11.20;7.13;;;;;;;17.46;97.12;100566.69;4842212;29;19916;-87
2023/07/29 01:49:34;;;;;;;7.07;5.82;;;;;;;17.47;97.38;100582.63;4843896;29;20068;-88
2023/07/29 01:51:59;;;;;;;;;;;;;;;17.53;97.52;100587.88;4858896;29;20065;-80
2023/07/29 01:54:25;;;;;;;8.25;7.07;;;;;;;17.49;97.62;100574.19;4833182;29;19920;-82
2023/07/29 01:56:51;;;;;;;;;;;;;;;17.53;97.82;100572.41;4847864;29;20120;-89
2023/07/29 01:59:17;;;;;;;9.45;6.70;;;;;;;17.50;97.50;100575.78;4844902;29;19916;-81
2023/07/29 02:01:42;;;;;;;;;;;;;;;17.51;97.78;100579.28;4858669;29;20029;-82
2023/07/29 02:04:08;;;;;;;7.78;5.97;;;;;;;17.49;97.39;100568.00;4843162;29;19927;-83
2023/07/29 02:06:35;;;;;;;9.82;7.32;;;;;;;17.48;97.98;100569.91;4857099;29;20266;-81
2023/07/29 02:09:00;;;;;;;;;;;;;;;17.49;97.95;100571.50;4841994;29;20046;-81
2023/07/29 02:11:27;;;;;;;8.10;6.85;;;;;;;17.47;97.74;100568.28;4860106;29;19920;-79
2023/07/29 02:13:54;;;;;;;7.63;6.10;;;;;;;17.49;97.58;100566.06;4859270;29;20049;-79
2023/07/29 02:16:21;;;;;;;8.90;7.32;;;;;;;17.50;97.77;100556.84;4848514;29;20064;-81
2023/07/29 02:18:47;;;;;;;9.85;7.80;;;;;;;17.50;97.48;100556.03;4840014;29;20048;-81
2023/07/29 02:21:13;;;;;;;;;;;;;;;17.54;97.56;100559.69;4860226;29;20032;-81
2023/07/29 02:23:39;;;;;;;8.68;5.88;;;;;;;17.52;97.18;100551.09;4870829;29;19920;-80
2023/07/29 02:26:05;;;;;;;;;;;;;;;17.55;97.63;100556.69;4860648;29;20041;-82
2023/07/29 02:28:30;;;;;;;8.45;7.07;;;;;;;17.52;97.63;100551.09;4857415;29;20367;-81
2023/07/29 02:31:10;;;;;;;;;;;;;;;17.53;97.76;100549.97;4842548;29;20149;-81
2023/07/29 02:33:36;;;;;;;8.70;6.10;;;;;;;17.50;97.31;100550.63;4858695;29;19924;-81
2023/07/29 02:36:01;;;;;;;;;;;;;;;17.53;97.75;100555.38;4862174;29;20036;-81
2023/07/29 02:38:28;;;;;;;8.20;6.78;;;;;;;17.50;97.34;100551.41;4856055;29;19920;-80
2023/07/29 02:40:53;;;;;;;7.35;6.45;;;;;;;17.50;97.06;100548.72;4848757;29;20033;-81
2023/07/29 02:43:19;;;;;;;;;;;;;;;17.50;97.24;100546.00;4840820;29;20040;-81
2023/07/29 02:45:44;;;;;;;8.70;6.90;;;;;;;17.51;97.55;100547.59;4843945;29;19923;-81
2023/07/29 02:48:10;;;;;;;;;;;;;;;17.50;97.17;100534.38;4824726;29;20432;-81
2023/07/29 02:50:35;;;;;;;8.07;7.03;;;;;;;17.46;97.60;100540.41;4854742;29;19959;-82
2023/07/29 02:53:01;;;;;;;;;;;;;;;17.47;97.72;100524.97;4843805;29;20049;-85
2023/07/29 02:55:27;;;;;;;7.82;6.72;;;;;;;17.43;97.02;100526.75;4863171;29;19946;-84
2023/07/29 02:57:53;;;;;;;10.55;6.28;;;;;;;17.43;97.29;100524.81;4861095;29;20053;-83
2023/07/29 03:00:20;;;;;;;7.35;6.55;;;;;;;17.41;96.79;100531.69;4856622;29;20073;-83
2023/07/29 03:02:46;;;;;;;;;;;;;;;17.39;95.95;100536.59;4880672;29;20146;-84
2023/07/29 03:05:12;;;;;;;9.13;5.07;;;;;;;17.37;95.73;100541.56;4876514;29;19916;-84
2023/07/29 03:07:38;;;;;;;8.88;7.63;;;;;;;17.35;96.28;100528.34;4844735;29;20411;-84
2023/07/29 03:10:05;;;;;;;10.18;7.13;;;;;;;17.32;96.29;100536.28;4841630;29;20119;-83
2023/07/29 03:12:31;;;;;;;8.60;6.90;;;;;;;17.29;95.74;100524.22;4869693;29;20509;-82
2023/07/29 03:14:57;;;;;;;6.20;5.55;;;;;;;17.27;95.61;100531.03;4874792;29;20056;-83
2023/07/29 03:17:23;;;;;;;;;;;;;;;17.25;95.40;100536.78;4843023;29;20033;-84
2023/07/29 03:19:48;;;;;;;5.97;5.05;;;;;;;17.24;95.45;100531.69;4830249;29;19923;-82
2023/07/29 03:22:14;;;;;;;8.85;7.10;;;;;;;17.18;95.78;100533.75;4864858;29;20641;-82
2023/07/29 03:24:39;;;;;;;;;;;;;;;17.15;95.60;100534.41;4848532;29;20040;-83
2023/07/29 03:27:05;;;;;;;6.78;5.75;;;;;;;17.12;95.66;100538.53;4844114;29;19943;-82
2023/07/29 03:29:31;;;;;;;;;;;;;;;17.13;95.62;100545.53;4857668;29;20042;-82
2023/07/29 03:31:56;;;;;;;7.80;6.43;;;;;;;17.13;96.08;100542.81;4829556;29;20403;-84
2023/07/29 03:34:22;;;;;;;;;;;;;;;17.16;96.82;100553.03;4869033;29;20042;-83
2023/07/29 03:36:48;;;;;;;8.90;7.82;;;;;;;17.18;97.38;100550.00;4859949;29;19928;-82
2023/07/29 03:39:14;;;;;;;9.50;8.00;;;;;;;17.19;97.86;100551.56;4825752;29;20124;-83
2023/07/29 03:41:40;;;;;;;8.75;6.93;;;;;;;17.19;97.80;100557.78;4868418;29;20543;-83
2023/07/29 03:44:05;;;;;;;;;;;;;;;17.25;98.15;100557.63;4859557;29;20154;-84
2023/07/29 03:46:31;;;;;;;11.68;8.65;;;;;;;17.22;97.94;100547.47;4860817;29;19923;-85
2023/07/29 03:48:57;;;;;;;11.88;8.77;;;;;;;17.20;98.26;100545.03;4857239;29;20176;-84
2023/07/29 03:51:24;;;;;;;;;;;;;;;17.24;98.44;100542.50;4863969;29;20411;-84
2023/07/29 03:53:50;;;;;;;10.45;8.35;;;;;;;17.24;98.48;100537.09;4861576;29;19980;-84
2023/07/29 03:56:15;;;;;;;;;;;;;;;17.26;98.50;100529.44;4851259;29;20460;-85
2023/07/29 03:58:42;;;;;;;10.23;8.80;;;;;;;17.23;98.71;100528.19;4839848;29;19916;-85
2023/07/29 04:01:08;;;;;;;10.13;8.27;;;;;;;17.27;98.37;100520.22;4826639;29;20048;-84
2023/07/29 04:03:34;;;;;;;;;;;;;;;17.29;98.63;100523.41;4847365;29;20067;-83
2023/07/29 04:05:59;;;;;;;10.60;8.55;;;;;;;17.28;98.36;100519.13;4860036;29;20003;-83
2023/07/29 04:08:25;;;;;;;;;;;;;;;17.29;98.15;100518.00;4858270;29;20120;-84
2023/07/29 04:10:51;;;;;;;11.88;9.15;;;;;;;17.27;97.90;100523.72;4861239;29;20371;-85
2023/07/29 04:13:17;;;;;;;;;;;;;;;17.31;97.79;100526.59;4846707;29;20085;-84
2023/07/29 04:15:42;;;;;;;12.60;8.57;;;;;;;17.29;97.35;100518.00;4856271;29;19920;-83
2023/07/29 04:18:09;;;;;;;;;;;;;;;17.29;97.27;100531.53;4841727;29;20132;-84
2023/07/29 04:20:35;;;;;;;11.82;8.05;;;;;;;17.28;97.10;100524.53;4859676;29;19927;-82
2023/07/29 04:23:00;;;;;;;;;;;;;;;17.32;97.20;100530.88;4859429;29;20120;-83
2023/07/29 04:25:28;;;;;;;8.57;7.18;;;;;;;17.31;97.03;100526.59;4852193;29;20331;-83
2023/07/29 04:27:54;;;;;;;10.48;7.35;;;;;;;17.31;96.93;100521.19;4863125;29;20052;-85
2023/07/29 04:30:19;;;;;;;;;;;;;;;17.34;97.70;100525.94;4872070;29;20108;-86
2023/07/29 04:32:48;;;;;;;13.45;10.10;;;;;;;17.33;98.01;100527.06;4861511;29;20008;-84
2023/07/29 04:35:14;;;;;;;11.70;9.20;;;;;;;17.34;98.04;100536.75;4844362;29;20053;-83
2023/07/29 04:37:41;;;;;;;13.77;10.05;;;;;;;17.35;97.95;100533.75;4854085;29;20069;-84
2023/07/29 04:40:08;;;;;;;;;;;;;;;17.36;98.17;100529.16;4859048;29;20075;-83
2023/07/29 04:42:33;;;;;;;12.23;9.90;;;;;;;17.38;98.10;100532.31;4873282;29;19920;-84
2023/07/29 04:44:59;;;;;;;;;;;;;;;17.39;97.93;100532.00;4844618;29;20048;-84
2023/07/29 04:47:25;;;;;;;12.13;10.18;;;;;;;17.40;98.32;100519.25;4867010;29;19928;-84
2023/07/29 04:49:50;;;;;;;;;;;;;;;17.42;98.10;100522.44;4856680;29;20448;-84
2023/07/29 04:52:19;;;;;;;11.73;9.30;;;;;;;17.42;97.63;100517.03;4834904;29;20475;-83
2023/07/29 04:54:44;;;;;;;12.90;10.90;;;;;;;17.43;97.51;100518.63;4853544;29;20112;-83
2023/07/29 04:57:10;;;;;;;;;;;;;;;17.46;97.84;100517.97;4843490;29;20160;-85
2023/07/29 04:59:37;;;;;;;13.25;10.35;;;;;;;17.46;97.58;100517.97;4839934;29;20007;-86
2023/07/29 05:02:03;;;;;;;10.55;9.40;;;;;;;17.49;97.53;100511.94;4857536;29;20120;-86
2023/07/29 05:04:28;;;;;;;;;;;;;;;17.51;97.67;100520.50;4856984;29;20120;-86
2023/07/29 05:06:55;;;;;;;15.52;9.93;;;;;;;17.51;97.34;100509.69;4851282;29;19999;-86
2023/07/29 05:09:21;;;;;;;;;;;;;;;17.57;98.10;100513.81;4853855;29;20132;-84
2023/07/29 05:11:48;;;;;;;13.65;11.15;;;;;;;17.57;97.93;100519.22;4857973;29;19923;-85
2023/07/29 05:14:16;;;;;;;15.82;12.50;;;;;;;17.59;97.91;100521.63;4842117;29;20044;-84
2023/07/29 05:16:43;;;;;;;16.13;13.40;;;;;;;17.63;97.79;100517.94;4864162;29;20570;-86
2023/07/29 05:19:08;;;;;;;;;;;;;;;17.67;98.17;100516.16;4830291;29;20136;-85
2023/07/29 05:21:34;;;;;;;16.38;12.38;;;;;;;17.71;98.13;100519.88;4870140;29;19917;-85
2023/07/29 05:24:00;;;;;;;22.80;15.48;;;;;;;17.75;98.26;100520.03;4878890;29;20062;-84
2023/07/29 05:26:26;;;;;;;27.20;18.90;;;;;;;17.79;98.07;100514.75;4860514;29;20452;-85
2023/07/29 05:28:52;;;;;;;;;;;;;;;17.88;98.53;100520.91;4858665;29;20034;-86
2023/07/29 05:31:17;;;;;;;27.58;18.35;;;;;;;17.89;98.45;100519.84;4855292;29;20018;-84
2023/07/29 05:33:44;;;;;;;24.65;18.27;;;;;;;17.94;97.91;100522.34;4859118;29;20038;-85
2023/07/29 05:36:10;;;;;;;27.98;19.38;;;;;;;18.00;97.93;100521.03;4862068;29;20092;-87
2023/07/29 05:38:36;;;;;;;;;;;;;;;18.09;98.05;100518.31;4841152;29;20029;-87
2023/07/29 05:41:02;;;;;;;21.17;15.93;;;;;;;18.10;97.46;100515.28;4863015;29;19995;-86
2023/07/29 05:43:27;;;;;;;;;;;;;;;18.16;97.58;100513.19;4874289;29;20033;-87
2023/07/29 05:45:53;;;;;;;25.77;17.98;;;;;;;18.19;97.47;100517.94;4845497;29;19920;-86
2023/07/29 05:48:19;;;;;;;;;;;;;;;18.25;96.62;100516.66;4861436;29;20121;-87
2023/07/29 05:50:47;;;;;;;28.27;19.88;;;;;;;18.31;96.92;100520.75;4876577;29;19924;-85
2023/07/29 05:53:14;;;;;;;23.98;17.08;;;;;;;18.43;97.50;100518.16;4832698;29;20141;-86
2023/07/29 05:55:40;;;;;;;26.38;18.95;;;;;;;18.53;97.49;100522.41;4858249;29;20089;-86
2023/07/29 05:58:05;;;;;;;;;;;;;;;18.55;96.68;100510.09;4860628;29;20045;-84
2023/07/29 06:00:31;;;;;;;24.63;17.38;;;;;;;18.60;96.92;100508.31;4840078;29;20439;-85
2023/07/29 06:02:59;;;;;;;35.15;21.30;;;;;;;18.62;97.03;100515.00;4843954;29;20041;-84
2023/07/29 06:05:24;;;;;;;25.83;17.42;;;;;;;18.60;96.05;100513.75;4852885;29;20492;-82
2023/07/29 06:07:51;;;;;;;26.48;18.70;;;;;;;18.63;96.92;100511.19;4859863;29;20061;-85
2023/07/29 06:10:19;;;;;;;;;;;;;;;18.63;96.78;100507.66;4843605;29;20088;-85
2023/07/29 06:12:46;;;;;;;22.95;16.17;;;;;;;18.64;97.10;100511.97;4869224;29;20390;-85
2023/07/29 06:15:12;;;;;;;;;;;;;;;18.62;96.12;100506.84;4855525;29;20041;-86
2023/07/29 06:17:38;;;;;;;23.38;16.65;;;;;;;18.61;95.70;100491.72;4857747;29;19916;-85
2023/07/29 06:20:05;;;;;;;21.55;17.08;;;;;;;18.62;95.65;100492.50;4833496;29;20037;-83
2023/07/29 06:22:31;;;;;;;27.98;18.08;;;;;;;18.66;95.75;100491.56;4842464;29;20045;-84
2023/07/29 06:24:57;;;;;;;;;;;;;;;18.70;95.83;100495.22;4861135;29;20040;-84
2023/07/29 06:27:24;;;;;;;27.73;18.48;;;;;;;18.73;96.25;100502.66;4859141;29;19998;-84
2023/07/29 06:29:50;;;;;;;26.20;19.08;;;;;;;18.75;96.22;100505.03;4855386;29;20045;-84
2023/07/29 06:32:15;;;;;;;25.42;18.30;;;;;;;18.75;95.95;100505.84;4840438;29;20445;-82
2023/07/29 06:34:41;;;;;;;23.90;17.98;;;;;;;18.72;95.05;100497.59;4861160;29;20536;-81
2023/07/29 06:37:07;;;;;;;;;;;;;;;18.80;95.36;100489.38;4863616;29;20052;-85
2023/07/29 06:39:33;;;;;;;22.60;16.25;;;;;;;18.82;95.22;100487.13;4856076;29;19915;-83
2023/07/29 06:41:59;;;;;;;25.33;18.23;;;;;;;18.89;95.23;100497.44;4857611;29;20449;-85
2023/07/29 06:44:25;;;;;;;27.17;19.70;;;;;;;18.92;95.31;100502.22;4853668;29;20407;-83
2023/07/29 06:46:50;;;;;;;19.58;16.50;;;;;;;18.95;94.75;100503.47;4862398;29;20053;-83
2023/07/29 06:49:16;;;;;;;25.98;18.13;;;;;;;19.04;94.52;100494.16;4840919;29;20136;-82
2023/07/29 06:51:42;;;;;;;26.40;19.55;;;;;;;19.08;94.10;100489.63;4860921;29;20434;-82
2023/07/29 06:54:07;;;;;;;24.73;17.70;;;;;;;19.18;94.23;100499.28;4860746;29;20041;-82
2023/07/29 06:56:33;;;;;;;25.42;20.75;;;;;;;19.29;94.24;100488.81;4858821;29;20103;-90
2023/07/29 06:58:58;;;;;;;21.95;18.25;;;;;;;19.31;93.29;100500.94;4833831;29;20120;-88
2023/07/29 07:01:24;;;;;;;20.75;17.48;;;;;;;19.33;93.13;100504.09;4841734;29;20094;-87
2023/07/29 07:03:49;;;;;;;;;;;;;;;19.34;93.34;100508.41;4861814;29;20073;-85
2023/07/29 07:06:15;;;;;;;20.08;16.23;;;;;;;19.32;93.23;100516.09;4848544;29;19923;-86
2023/07/29 07:08:41;;;;;;;18.77;15.98;;;;;;;19.32;93.43;100505.22;4846298;29;20115;-85
2023/07/29 07:11:07;;;;;;;21.60;17.23;;;;;;;19.34;93.62;100511.09;4844300;29;20045;-86
2023/07/29 07:13:33;;;;;;;21.55;18.20;;;;;;;19.33;94.06;100512.25;4861534;29;20121;-87
2023/07/29 07:15:59;;;;;;;24.02;20.52;;;;;;;19.34;94.67;100515.75;4868795;29;20120;-86
2023/07/29 07:18:25;;;;;;;22.55;18.13;;;;;;;19.31;93.96;100519.16;4855027;29;20395;-85
2023/07/29 07:20:52;;;;;;;23.50;16.52;;;;;;;19.29;94.22;100516.75;4855895;29;20116;-87
2023/07/29 07:23:18;;;;;;;20.80;16.92;;;;;;;19.30;94.56;100506.66;4855382;29;20053;-87
2023/07/29 07:25:44;;;;;;;16.55;14.38;;;;;;;19.27;93.57;100500.00;4859928;29;20041;-85
2023/07/29 07:28:10;;;;;;;18.42;15.27;;;;;;;19.34;94.86;100513.81;4831050;29;20049;-87
2023/07/29 07:30:41;;;;;;;17.52;14.20;;;;;;;19.36;93.83;100506.13;4859266;29;20053;-86
2023/07/29 07:33:06;;;;;;;19.95;14.95;;;;;;;19.44;94.31;100500.94;4874870;29;20048;-86
2023/07/29 07:35:32;;;;;;;15.43;13.75;;;;;;;19.47;94.32;100498.38;4859809;29;20037;-88
2023/07/29 07:38:01;;;;;;;16.75;14.30;;;;;;;19.49;94.43;100509.69;4851213;29;20543;-88
2023/07/29 07:40:27;;;;;;;18.80;14.77;;;;;;;19.51;95.01;100498.47;4847973;29;20069;-89
2023/07/29 07:42:53;;;;;;;14.13;12.65;;;;;;;19.52;94.61;100503.59;4863666;29;20053;-90
2023/07/29 07:45:19;;;;;;;15.10;12.50;;;;;;;19.53;94.43;100499.75;4861643;29;20033;-88
2023/07/29 07:47:45;;;;;;;14.25;10.80;;;;;;;19.56;94.14;100509.13;4870372;29;20408;-90
2023/07/29 07:50:11;;;;;;;12.98;10.90;;;;;;;19.53;93.27;100496.25;4838218;29;20034;-85
2023/07/29 07:52:37;;;;;;;527.28;436.70;;;;;;;19.61;93.58;100495.38;4871301;29;20040;-88
2023/07/29 07:55:03;;;;;;;513.50;444.33;;;;;;;19.62;91.82;100496.97;4828739;29;20029;-88
2023/07/29 07:57:29;;;;;;;435.02;390.13;;;;;;;19.67;91.88;100498.69;4872813;29;20033;-87
2023/07/29 07:59:54;;;;;;;175.55;158.10;;;;;;;19.68;92.55;100490.19;4861750;29;20055;-88
2023/07/29 08:02:20;;;;;;;75.30;68.22;;;;;;;19.67;91.07;100488.59;4811534;29;20100;-86
2023/07/29 08:04:45;;;;;;;120.38;108.63;;;;;;;19.68;91.12;100495.63;4830777;29;20387;-87
2023/07/29 08:07:11;;;;;;;21.92;19.60;;;;;;;19.72;92.03;100485.69;4862579;29;20048;-83
2023/07/29 08:09:37;;;;;;;58.75;52.92;;;;;;;19.76;93.21;100486.56;4875290;29;20111;-85
2023/07/29 08:12:03;;;;;;;19.58;16.92;;;;;;;19.69;90.62;100480.13;4841841;29;20049;-87
2023/07/29 08:14:28;;;;;;;22.88;20.48;;;;;;;19.77;92.66;100488.16;4858918;29;20125;-87
2023/07/29 08:16:54;;;;;;;20.45;18.00;;;;;;;19.76;92.29;100483.84;4843364;29;20037;-83
2023/07/29 08:19:19;;;;;;;71.32;64.57;;;;;;;19.80;91.06;100486.72;4832668;29;20034;-85
2023/07/29 08:21:45;;;;;;;114.82;103.80;;;;;;;19.78;91.26;100486.22;4858128;29;20147;-88
2023/07/29 08:24:10;;;;;;;193.98;175.05;;;;;;;19.74;90.62;100494.28;4844180;29;20073;-86
2023/07/29 08:26:37;;;;;;;34.72;30.45;;;;;;;19.77;92.42;100482.72;4857379;29;20043;-86
2023/07/29 08:29:03;;;;;;;15.90;13.60;;;;;;;19.80;93.93;100487.50;4857539;29;20034;-85
2023/07/29 08:31:29;;;;;;;54.72;48.95;;;;;;;19.82;92.59;100495.31;4875886;29;20061;-86
2023/07/29 08:33:54;;;;;;;18.67;16.73;;;;;;;19.87;93.16;100497.81;4859367;29;20040;-86
2023/07/29 08:36:20;;;;;;;22.55;20.13;;;;;;;19.86;91.29;100502.44;4858836;29;20032;-85
2023/07/29 08:38:46;;;;;;;12.10;10.88;;;;;;;19.85;90.78;100494.66;4863542;29;20131;-84
2023/07/29 08:41:53;;;;;;;18.48;16.65;;;;;;;19.92;92.58;100507.69;4828895;29;20503;-87
2023/07/29 08:44:22;;;;;;;16.58;13.68;;;;;;;19.92;91.73;100505.75;4868813;29;20045;-87
2023/07/29 08:46:48;;;;;;;37.17;33.92;;;;;;;20.00;91.43;100510.28;4860125;29;20089;-88
2023/07/29 08:49:15;;;;;;;11.05;9.93;;;;;;;20.03;90.63;100500.66;4827130;29;20053;-86
2023/07/29 08:51:46;;;;;;;11.23;9.52;;;;;;;20.07;91.10;100494.22;4864606;29;20054;-85
2023/07/29 08:54:13;;;;;;;10.93;9.57;;;;;;;20.12;90.92;100498.63;4847444;29;20029;-83
2023/07/29 08:56:40;;;;;;;13.30;11.85;;;;;;;20.14;91.49;100501.78;4858402;29;20132;-84
2023/07/29 08:59:07;;;;;;;12.27;10.77;;;;;;;20.10;90.37;100506.31;4853935;29;20121;-84
2023/07/29 09:01:33;;;;;;;16.83;14.48;;;;;;;20.14;91.31;100497.16;4895088;23;20052;-79
2023/07/29 09:04:00;;;;;;;10.57;9.27;;;;;;;20.19;92.19;100498.88;4869768;29;20040;-78
2023/07/29 09:06:27;;;;;;;11.18;10.07;;;;;;;20.21;92.93;100495.78;4859593;29;20052;-80
2023/07/29 09:08:56;;;;;;;10.93;9.82;;;;;;;20.23;93.63;100497.03;4875968;29;20124;-77
2023/07/29 09:11:22;;;;;;;9.90;8.90;;;;;;;20.28;93.25;100490.59;4877355;29;20041;-77
2023/07/29 09:13:48;;;;;;;12.40;11.20;;;;;;;20.29;91.54;100490.22;4889844;29;20044;-80
2023/07/29 09:16:15;;;;;;;10.75;9.70;;;;;;;20.41;92.51;100484.78;4875300;29;20071;-75
2023/07/29 09:18:40;;;;;;;13.93;10.70;;;;;;;20.56;91.89;100474.38;4859661;29;20078;-75
2023/07/29 09:21:06;;;;;;;10.50;9.32;;;;;;;20.66;91.53;100473.88;4872923;29;20049;-76
2023/07/29 09:23:43;;;;;;;11.77;10.57;;;;;;;20.83;90.01;100478.28;4859771;29;20042;-77
2023/07/29 09:26:09;;;;;;;11.00;9.85;;;;;;;20.96;90.40;100477.88;4859586;29;20577;-77
2023/07/29 09:28:36;;;;;;;9.88;8.93;;;;;;;21.06;86.87;100475.78;4860335;29;20127;-79
2023/07/29 09:31:02;;;;;;;9.93;8.93;;;;;;;21.17;87.32;100477.69;4861343;29;20604;-76
2023/07/29 09:33:31;;;;;;;9.77;8.60;;;;;;;21.24;85.85;100471.66;4871575;29;20392;-78
2023/07/29 09:35:57;;;;;;;12.13;9.10;;;;;;;21.33;87.42;100474.22;4887484;29;20040;-79
2023/07/29 09:38:29;;;;;;;10.02;9.13;;;;;;;21.30;82.80;100470.28;4892508;29;20060;-78
2023/07/29 09:40:59;;;;;;;13.85;12.60;;;;;;;21.39;85.66;100459.22;4871445;29;20054;-79
2023/07/29 09:43:28;;;;;;;9.48;8.57;;;;;;;21.42;86.69;100453.88;4856262;29;20029;-76
2023/07/29 09:45:54;;;;;;;28.55;25.73;;;;;;;21.47;84.22;100461.00;4857520;29;20044;-75
2023/07/29 09:48:22;;;;;;;16.13;13.93;;;;;;;21.44;82.66;100465.22;4872631;29;20059;-78
2023/07/29 09:50:48;;;;;;;12.10;9.70;;;;;;;21.48;84.09;100460.66;4875231;29;20039;-77
2023/07/29 09:53:14;;;;;;;14.35;9.23;;;;;;;21.52;85.36;100455.28;4862480;29;20509;-76
2023/07/29 09:55:46;;;;;;;18.77;16.65;;;;;;;21.50;84.57;100465.75;4872576;29;20045;-79
2023/07/29 09:58:12;;;;;;;10.57;9.57;;;;;;;21.52;83.82;100466.97;4873205;29;20039;-78
2023/07/29 10:00:39;;;;;;;9.75;8.75;;;;;;;21.59;81.17;100463.66;4872637;29;20390;-80
2023/07/29 10:03:06;;;;;;;19.65;7.00;;;;;;;21.63;84.67;100466.47;4863418;29;20039;-78
2023/07/29 10:05:34;;;;;;;11.05;8.38;;;;;;;21.69;84.47;100482.22;4890262;29;20499;-77
2023/07/29 10:08:01;;;;;;;8.75;7.90;;;;;;;21.72;81.44;100472.53;4861778;29;20588;-79
2023/07/29 10:10:28;;;;;;;8.48;7.63;;;;;;;21.81;77.42;100475.88;4891359;29;20415;-75
2023/07/29 10:12:55;;;;;;;8.73;7.85;;;;;;;21.98;78.99;100474.72;4893029;29;20118;-76
2023/07/29 10:15:22;;;;;;;7.25;6.55;;;;;;;22.01;79.61;100471.28;4864625;29;20134;-74
2023/07/29 10:17:48;;;;;;;9.48;6.80;;;;;;;21.98;76.95;100472.00;4873903;29;20027;-78
2023/07/29 10:20:14;;;;;;;6.78;4.90;;;;;;;21.95;75.04;100472.72;4878078;29;20573;-77
2023/07/29 10:22:43;;;;;;;5.85;5.13;;;;;;;21.97;75.58;100471.22;4894029;29;20044;-80
2023/07/29 10:25:12;;;;;;;8.80;5.05;;;;;;;22.02;80.43;100475.63;4875349;29;20052;-79
2023/07/29 10:27:52;;;;;;;6.82;4.53;;;;;;;21.89;77.22;100468.69;4891275;29;20043;-77
2023/07/29 10:30:18;;;;;;;10.00;6.88;;;;;;;21.84;75.96;100461.56;4860723;29;20129;-78
2023/07/29 10:32:45;;;;;;;5.82;4.85;;;;;;;21.94;77.67;100466.47;4886765;29;20040;-77
2023/07/29 10:35:12;;;;;;;5.75;4.85;;;;;;;21.93;80.73;100467.59;4862385;29;20048;-78
2023/07/29 10:37:39;;;;;;;4.70;4.25;;;;;;;21.93;81.38;100464.88;4861709;29;20040;-79
2023/07/29 10:40:10;;;;;;;6.07;3.95;;;;;;;21.88;82.22;100470.63;4878989;29;20052;-77
2023/07/29 10:42:36;;;;;;;4.90;3.85;;;;;;;21.76;82.80;100459.78;4861571;29;20049;-79
2023/07/29 10:45:18;;;;;;;4.13;3.72;;;;;;;21.70;83.96;100451.09;4876913;29;20032;-77
2023/07/29 10:47:43;;;;;;;3.30;2.72;;;;;;;21.72;82.27;100456.19;4874694;29;20040;-76
2023/07/29 10:50:18;;;;;;;4.05;3.65;;;;;;;21.84;79.80;100441.69;4859339;29;20511;-77
2023/07/29 10:52:50;;;;;;;3.67;3.08;;;;;;;21.88;81.54;100451.53;4880900;29;20044;-79
2023/07/29 10:55:33;;;;;;;3.95;3.55;;;;;;;21.94;83.15;100462.94;4889249;29;20036;-80
2023/07/29 10:58:14;;;;;;;3.70;2.97;;;;;;;21.91;76.68;100453.53;4886551;29;20111;-77
2023/07/29 11:00:43;;;;;;;3.33;2.78;;;;;;;21.93;80.85;100453.97;4856041;29;20044;-76
2023/07/29 11:03:12;;;;;;;4.05;2.55;;;;;;;21.93;81.72;100451.25;4858940;29;20602;-77
2023/07/29 11:05:51;;;;;;;3.20;2.90;;;;;;;21.91;80.87;100450.81;4887603;29;20826;-77
2023/07/29 11:08:30;;;;;;;3.38;2.40;;;;;;;21.87;76.31;100452.66;4891132;29;20035;-75
2023/07/29 11:11:13;;;;;;;3.70;3.13;;;;;;;21.88;75.38;100448.81;4879904;29;20040;-76
2023/07/29 11:13:39;;;;;;;4.72;2.47;;;;;;;21.85;76.84;100452.22;4859417;29;20055;-80
2023/07/29 11:16:05;;;;;;;4.05;2.97;;;;;;;21.88;78.88;100443.34;4870555;29;20502;-78
2023/07/29 11:18:33;;;;;;;3.70;2.40;;;;;;;22.03;73.57;100444.47;4876075;29;20043;-77
2023/07/29 11:21:01;;;;;;;6.93;3.08;;;;;;;22.34;73.34;100446.38;4857411;29;20410;-77
2023/07/29 11:23:31;;;;;;;4.47;3.05;;;;;;;22.59;73.87;100449.66;4870245;29;20068;-75
2023/07/29 11:25:58;;;;;;;4.88;2.78;;;;;;;22.71;74.00;100438.59;4860484;29;20036;-77
2023/07/29 11:28:26;;;;;;;4.07;2.80;;;;;;;22.83;71.46;100445.88;4874882;29;20036;-76
2023/07/29 11:30:53;;;;;;;3.33;3.03;;;;;;;22.91;69.46;100446.84;4877107;29;20041;-77